sensor_id;sensor_type;location;lat;lon;timestamp;temperature;humidity
50512;DHT22;36446;47.642;-3.018;2023-12-04T00:02:22;19.20;95.20
50512;DHT22;36446;47.642;-3.018;2023-12-04T00:04:49;19.10;95.20
50512;DHT22;36446;47.642;-3.018;2023-12-04T00:07:16;19.10;95.20
50512;DHT22;36446;47.642;-3.018;2023-12-04T00:09:43;19.10;95.20
50512;DHT22;36446;47.642;-3.018;2023-12-04T00:12:10;19.10;95.20
50512;DHT22;36446;47.642;-3.018;2023-12-04T00:14:36;19.10;95.20
50512;DHT22;36446;47.642;-3.018;2023-12-04T00:17:03;19.10;95.20
50512;DHT22;36446;47.642;-3.018;2023-12-04T00:19:32;19.00;95.20
50512;DHT22;36446;47.642;-3.018;2023-12-04T00:21:59;19.00;95.30
50512;DHT22;36446;47.642;-3.018;2023-12-04T00:24:26;19.00;95.30
50512;DHT22;36446;47.642;-3.018;2023-12-04T00:26:52;19.00;95.30
50512;DHT22;36446;47.642;-3.018;2023-12-04T00:29:19;19.00;95.30
50512;DHT22;36446;47.642;-3.018;2023-12-04T00:31:46;18.90;95.30
50512;DHT22;36446;47.642;-3.018;2023-12-04T00:34:13;18.90;95.40
50512;DHT22;36446;47.642;-3.018;2023-12-04T00:36:41;18.90;95.40
50512;DHT22;36446;47.642;-3.018;2023-12-04T00:39:08;18.90;95.40
50512;DHT22;36446;47.642;-3.018;2023-12-04T00:41:35;18.90;95.40
50512;DHT22;36446;47.642;-3.018;2023-12-04T00:44:02;18.80;95.40
50512;DHT22;36446;47.642;-3.018;2023-12-04T00:46:29;18.80;95.40
50512;DHT22;36446;47.642;-3.018;2023-12-04T00:48:56;18.80;95.40
50512;DHT22;36446;47.642;-3.018;2023-12-04T00:51:23;18.80;95.50
50512;DHT22;36446;47.642;-3.018;2023-12-04T00:53:53;18.80;95.50
50512;DHT22;36446;47.642;-3.018;2023-12-04T00:56:20;18.80;95.50
50512;DHT22;36446;47.642;-3.018;2023-12-04T00:58:47;18.80;95.50
50512;DHT22;36446;47.642;-3.018;2023-12-04T01:01:15;18.80;95.50
50512;DHT22;36446;47.642;-3.018;2023-12-04T01:03:42;18.80;95.60
50512;DHT22;36446;47.642;-3.018;2023-12-04T01:06:10;18.70;95.50
50512;DHT22;36446;47.642;-3.018;2023-12-04T01:08:46;18.70;95.60
50512;DHT22;36446;47.642;-3.018;2023-12-04T01:11:16;18.70;95.60
50512;DHT22;36446;47.642;-3.018;2023-12-04T01:13:45;18.70;95.60
50512;DHT22;36446;47.642;-3.018;2023-12-04T01:16:12;18.70;95.60
50512;DHT22;36446;47.642;-3.018;2023-12-04T01:18:39;18.70;95.60
50512;DHT22;36446;47.642;-3.018;2023-12-04T01:21:06;18.70;95.60
50512;DHT22;36446;47.642;-3.018;2023-12-04T01:23:34;18.70;95.60
50512;DHT22;36446;47.642;-3.018;2023-12-04T01:26:01;18.70;95.60
50512;DHT22;36446;47.642;-3.018;2023-12-04T01:28:30;18.60;95.60
50512;DHT22;36446;47.642;-3.018;2023-12-04T01:30:57;18.60;95.60
50512;DHT22;36446;47.642;-3.018;2023-12-04T01:33:24;18.60;95.60
50512;DHT22;36446;47.642;-3.018;2023-12-04T01:35:51;18.60;95.70
50512;DHT22;36446;47.642;-3.018;2023-12-04T01:38:18;18.60;95.70
50512;DHT22;36446;47.642;-3.018;2023-12-04T01:40:45;18.60;95.70
50512;DHT22;36446;47.642;-3.018;2023-12-04T01:43:11;18.60;95.70
50512;DHT22;36446;47.642;-3.018;2023-12-04T01:45:40;18.50;95.70
50512;DHT22;36446;47.642;-3.018;2023-12-04T01:48:07;18.50;95.70
50512;DHT22;36446;47.642;-3.018;2023-12-04T01:50:35;18.50;95.80
50512;DHT22;36446;47.642;-3.018;2023-12-04T01:53:03;18.50;95.80
50512;DHT22;36446;47.642;-3.018;2023-12-04T01:55:30;18.50;95.80
50512;DHT22;36446;47.642;-3.018;2023-12-04T01:58:00;18.50;95.80
50512;DHT22;36446;47.642;-3.018;2023-12-04T02:00:29;18.50;95.80
50512;DHT22;36446;47.642;-3.018;2023-12-04T02:02:58;18.50;95.90
50512;DHT22;36446;47.642;-3.018;2023-12-04T02:05:27;18.50;95.80
50512;DHT22;36446;47.642;-3.018;2023-12-04T02:07:54;18.50;95.80
50512;DHT22;36446;47.642;-3.018;2023-12-04T02:10:22;18.50;95.90
50512;DHT22;36446;47.642;-3.018;2023-12-04T02:12:49;18.40;95.80
50512;DHT22;36446;47.642;-3.018;2023-12-04T02:15:16;18.40;95.80
50512;DHT22;36446;47.642;-3.018;2023-12-04T02:17:43;18.40;95.80
50512;DHT22;36446;47.642;-3.018;2023-12-04T02:20:14;18.40;95.80
50512;DHT22;36446;47.642;-3.018;2023-12-04T02:22:41;18.40;95.90
50512;DHT22;36446;47.642;-3.018;2023-12-04T02:25:10;18.40;95.90
50512;DHT22;36446;47.642;-3.018;2023-12-04T02:27:41;18.40;95.90
50512;DHT22;36446;47.642;-3.018;2023-12-04T02:30:12;18.40;95.90
50512;DHT22;36446;47.642;-3.018;2023-12-04T02:32:44;18.40;96.00
50512;DHT22;36446;47.642;-3.018;2023-12-04T02:35:13;18.40;96.00
50512;DHT22;36446;47.642;-3.018;2023-12-04T02:37:41;18.40;96.00
50512;DHT22;36446;47.642;-3.018;2023-12-04T02:40:11;18.40;96.00
50512;DHT22;36446;47.642;-3.018;2023-12-04T02:42:39;18.40;96.10
50512;DHT22;36446;47.642;-3.018;2023-12-04T02:45:06;18.40;96.00
50512;DHT22;36446;47.642;-3.018;2023-12-04T02:47:34;18.30;96.00
50512;DHT22;36446;47.642;-3.018;2023-12-04T02:50:01;18.40;96.00
50512;DHT22;36446;47.642;-3.018;2023-12-04T02:52:28;18.40;96.10
50512;DHT22;36446;47.642;-3.018;2023-12-04T02:54:55;18.40;96.10
50512;DHT22;36446;47.642;-3.018;2023-12-04T02:57:23;18.40;96.10
50512;DHT22;36446;47.642;-3.018;2023-12-04T02:59:50;18.30;96.10
50512;DHT22;36446;47.642;-3.018;2023-12-04T03:02:17;18.30;96.10
50512;DHT22;36446;47.642;-3.018;2023-12-04T03:04:44;18.30;96.20
50512;DHT22;36446;47.642;-3.018;2023-12-04T03:07:11;18.30;96.20
50512;DHT22;36446;47.642;-3.018;2023-12-04T03:09:38;18.30;96.20
50512;DHT22;36446;47.642;-3.018;2023-12-04T03:12:06;18.30;96.20
50512;DHT22;36446;47.642;-3.018;2023-12-04T03:14:34;18.30;96.20
50512;DHT22;36446;47.642;-3.018;2023-12-04T03:17:01;18.30;96.30
50512;DHT22;36446;47.642;-3.018;2023-12-04T03:19:28;18.30;96.30
50512;DHT22;36446;47.642;-3.018;2023-12-04T03:21:55;18.30;96.30
50512;DHT22;36446;47.642;-3.018;2023-12-04T03:24:22;18.20;96.30
50512;DHT22;36446;47.642;-3.018;2023-12-04T03:26:49;18.20;96.30
50512;DHT22;36446;47.642;-3.018;2023-12-04T03:29:15;18.20;96.30
50512;DHT22;36446;47.642;-3.018;2023-12-04T03:31:44;18.20;96.30
50512;DHT22;36446;47.642;-3.018;2023-12-04T03:34:11;18.20;96.40
50512;DHT22;36446;47.642;-3.018;2023-12-04T03:36:38;18.20;96.40
50512;DHT22;36446;47.642;-3.018;2023-12-04T03:39:04;18.20;96.40
50512;DHT22;36446;47.642;-3.018;2023-12-04T03:41:31;18.20;96.40
50512;DHT22;36446;47.642;-3.018;2023-12-04T03:43:58;18.20;96.40
50512;DHT22;36446;47.642;-3.018;2023-12-04T03:46:25;18.20;96.40
50512;DHT22;36446;47.642;-3.018;2023-12-04T03:48:55;18.20;96.40
50512;DHT22;36446;47.642;-3.018;2023-12-04T03:51:22;18.20;96.40
50512;DHT22;36446;47.642;-3.018;2023-12-04T03:53:48;18.20;96.40
50512;DHT22;36446;47.642;-3.018;2023-12-04T03:56:15;18.20;96.50
50512;DHT22;36446;47.642;-3.018;2023-12-04T03:58:42;18.20;96.50
50512;DHT22;36446;47.642;-3.018;2023-12-04T04:01:09;18.20;96.50
50512;DHT22;36446;47.642;-3.018;2023-12-04T04:03:36;18.20;96.50
50512;DHT22;36446;47.642;-3.018;2023-12-04T04:06:05;18.10;96.50
50512;DHT22;36446;47.642;-3.018;2023-12-04T04:08:32;18.10;96.50
50512;DHT22;36446;47.642;-3.018;2023-12-04T04:10:59;18.10;96.50
50512;DHT22;36446;47.642;-3.018;2023-12-04T04:13:26;18.10;96.50
50512;DHT22;36446;47.642;-3.018;2023-12-04T04:15:53;18.10;96.60
50512;DHT22;36446;47.642;-3.018;2023-12-04T04:18:20;18.10;96.60
50512;DHT22;36446;47.642;-3.018;2023-12-04T04:20:46;18.10;96.60
50512;DHT22;36446;47.642;-3.018;2023-12-04T04:23:15;18.10;96.60
50512;DHT22;36446;47.642;-3.018;2023-12-04T04:25:42;18.10;96.60
50512;DHT22;36446;47.642;-3.018;2023-12-04T04:28:08;18.10;96.60
50512;DHT22;36446;47.642;-3.018;2023-12-04T04:30:35;18.10;96.70
50512;DHT22;36446;47.642;-3.018;2023-12-04T04:33:02;18.10;96.70
50512;DHT22;36446;47.642;-3.018;2023-12-04T04:35:30;18.10;96.70
50512;DHT22;36446;47.642;-3.018;2023-12-04T04:37:57;18.10;96.70
50512;DHT22;36446;47.642;-3.018;2023-12-04T04:40:26;18.00;96.70
50512;DHT22;36446;47.642;-3.018;2023-12-04T04:42:53;18.00;96.80
50512;DHT22;36446;47.642;-3.018;2023-12-04T04:45:19;18.00;96.80
50512;DHT22;36446;47.642;-3.018;2023-12-04T04:47:46;18.00;96.80
50512;DHT22;36446;47.642;-3.018;2023-12-04T04:50:13;18.00;96.80
50512;DHT22;36446;47.642;-3.018;2023-12-04T04:52:40;18.00;96.80
50512;DHT22;36446;47.642;-3.018;2023-12-04T04:55:08;18.00;96.80
50512;DHT22;36446;47.642;-3.018;2023-12-04T04:57:36;17.90;96.80
50512;DHT22;36446;47.642;-3.018;2023-12-04T05:00:03;18.00;96.90
50512;DHT22;36446;47.642;-3.018;2023-12-04T05:02:31;18.00;96.90
50512;DHT22;36446;47.642;-3.018;2023-12-04T05:04:57;18.00;96.90
50512;DHT22;36446;47.642;-3.018;2023-12-04T05:07:24;18.00;96.90
50512;DHT22;36446;47.642;-3.018;2023-12-04T05:09:51;18.00;96.90
50512;DHT22;36446;47.642;-3.018;2023-12-04T05:12:18;18.00;96.90
50512;DHT22;36446;47.642;-3.018;2023-12-04T05:14:46;18.00;96.90
50512;DHT22;36446;47.642;-3.018;2023-12-04T05:17:13;17.90;96.80
50512;DHT22;36446;47.642;-3.018;2023-12-04T05:19:40;17.90;96.90
50512;DHT22;36446;47.642;-3.018;2023-12-04T05:22:08;17.90;96.80
50512;DHT22;36446;47.642;-3.018;2023-12-04T05:24:35;17.90;96.90
50512;DHT22;36446;47.642;-3.018;2023-12-04T05:27:02;17.90;96.90
50512;DHT22;36446;47.642;-3.018;2023-12-04T05:29:29;17.90;96.90
50512;DHT22;36446;47.642;-3.018;2023-12-04T05:31:57;17.90;96.90
50512;DHT22;36446;47.642;-3.018;2023-12-04T05:34:24;17.90;96.90
50512;DHT22;36446;47.642;-3.018;2023-12-04T05:36:51;17.90;96.90
50512;DHT22;36446;47.642;-3.018;2023-12-04T05:39:18;17.90;97.00
50512;DHT22;36446;47.642;-3.018;2023-12-04T05:41:45;17.90;96.90
50512;DHT22;36446;47.642;-3.018;2023-12-04T05:44:12;17.90;96.90
50512;DHT22;36446;47.642;-3.018;2023-12-04T05:46:39;17.90;96.90
50512;DHT22;36446;47.642;-3.018;2023-12-04T05:49:07;17.90;96.90
50512;DHT22;36446;47.642;-3.018;2023-12-04T05:51:35;18.00;96.90
50512;DHT22;36446;47.642;-3.018;2023-12-04T05:54:02;18.00;96.80
50512;DHT22;36446;47.642;-3.018;2023-12-04T05:56:29;18.00;96.80
50512;DHT22;36446;47.642;-3.018;2023-12-04T05:58:56;18.10;96.80
50512;DHT22;36446;47.642;-3.018;2023-12-04T06:01:23;18.10;96.90
50512;DHT22;36446;47.642;-3.018;2023-12-04T06:03:50;18.10;96.80
50512;DHT22;36446;47.642;-3.018;2023-12-04T06:06:18;18.00;96.70
50512;DHT22;36446;47.642;-3.018;2023-12-04T06:08:45;18.10;96.70
50512;DHT22;36446;47.642;-3.018;2023-12-04T06:11:13;18.10;96.70
50512;DHT22;36446;47.642;-3.018;2023-12-04T06:13:40;18.10;96.70
50512;DHT22;36446;47.642;-3.018;2023-12-04T06:16:07;18.10;96.70
50512;DHT22;36446;47.642;-3.018;2023-12-04T06:18:34;18.10;96.70
50512;DHT22;36446;47.642;-3.018;2023-12-04T06:21:01;18.20;96.70
50512;DHT22;36446;47.642;-3.018;2023-12-04T06:23:31;18.20;96.70
50512;DHT22;36446;47.642;-3.018;2023-12-04T06:25:58;18.20;96.70
50512;DHT22;36446;47.642;-3.018;2023-12-04T06:28:26;18.20;96.70
50512;DHT22;36446;47.642;-3.018;2023-12-04T06:30:53;18.20;96.80
50512;DHT22;36446;47.642;-3.018;2023-12-04T06:33:21;18.20;96.80
50512;DHT22;36446;47.642;-3.018;2023-12-04T06:35:48;18.20;96.80
50512;DHT22;36446;47.642;-3.018;2023-12-04T06:38:16;18.20;96.70
50512;DHT22;36446;47.642;-3.018;2023-12-04T06:40:47;18.30;96.80
50512;DHT22;36446;47.642;-3.018;2023-12-04T06:43:14;18.30;96.80
50512;DHT22;36446;47.642;-3.018;2023-12-04T06:45:44;18.30;96.80
50512;DHT22;36446;47.642;-3.018;2023-12-04T06:48:13;18.30;96.90
50512;DHT22;36446;47.642;-3.018;2023-12-04T06:50:40;18.30;96.80
50512;DHT22;36446;47.642;-3.018;2023-12-04T06:53:07;18.30;96.80
50512;DHT22;36446;47.642;-3.018;2023-12-04T06:55:34;18.50;97.10
50512;DHT22;36446;47.642;-3.018;2023-12-04T06:58:02;18.80;97.10
50512;DHT22;36446;47.642;-3.018;2023-12-04T07:00:29;19.10;97.00
50512;DHT22;36446;47.642;-3.018;2023-12-04T07:02:56;19.30;96.90
50512;DHT22;36446;47.642;-3.018;2023-12-04T07:05:23;19.50;96.80
50512;DHT22;36446;47.642;-3.018;2023-12-04T07:07:50;19.70;96.60
50512;DHT22;36446;47.642;-3.018;2023-12-04T07:10:17;19.90;96.40
50512;DHT22;36446;47.642;-3.018;2023-12-04T07:12:44;20.00;96.40
50512;DHT22;36446;47.642;-3.018;2023-12-04T07:15:13;20.00;96.30
50512;DHT22;36446;47.642;-3.018;2023-12-04T07:17:40;20.10;96.40
50512;DHT22;36446;47.642;-3.018;2023-12-04T07:20:07;20.20;96.50
50512;DHT22;36446;47.642;-3.018;2023-12-04T07:22:34;20.20;96.40
50512;DHT22;36446;47.642;-3.018;2023-12-04T07:25:02;20.30;96.40
50512;DHT22;36446;47.642;-3.018;2023-12-04T07:27:29;20.40;96.30
50512;DHT22;36446;47.642;-3.018;2023-12-04T07:29:56;20.50;96.30
50512;DHT22;36446;47.642;-3.018;2023-12-04T07:32:24;20.50;96.10
50512;DHT22;36446;47.642;-3.018;2023-12-04T07:34:51;20.50;96.00
50512;DHT22;36446;47.642;-3.018;2023-12-04T07:37:18;20.50;95.80
50512;DHT22;36446;47.642;-3.018;2023-12-04T07:39:45;20.50;95.70
50512;DHT22;36446;47.642;-3.018;2023-12-04T07:42:12;20.60;95.70
50512;DHT22;36446;47.642;-3.018;2023-12-04T07:44:39;20.50;95.60
50512;DHT22;36446;47.642;-3.018;2023-12-04T07:47:06;20.50;95.60
50512;DHT22;36446;47.642;-3.018;2023-12-04T07:49:34;20.60;95.50
50512;DHT22;36446;47.642;-3.018;2023-12-04T07:52:01;20.50;95.70
50512;DHT22;36446;47.642;-3.018;2023-12-04T07:54:29;20.50;95.70
50512;DHT22;36446;47.642;-3.018;2023-12-04T07:56:55;20.50;95.60
50512;DHT22;36446;47.642;-3.018;2023-12-04T07:59:22;20.50;95.50
50512;DHT22;36446;47.642;-3.018;2023-12-04T08:01:49;20.50;95.60
50512;DHT22;36446;47.642;-3.018;2023-12-04T08:04:16;20.50;95.60
50512;DHT22;36446;47.642;-3.018;2023-12-04T08:06:44;20.60;95.70
50512;DHT22;36446;47.642;-3.018;2023-12-04T08:09:11;20.60;95.70
50512;DHT22;36446;47.642;-3.018;2023-12-04T08:11:38;20.60;95.70
50512;DHT22;36446;47.642;-3.018;2023-12-04T08:14:05;20.50;95.60
50512;DHT22;36446;47.642;-3.018;2023-12-04T08:16:32;20.50;95.60
50512;DHT22;36446;47.642;-3.018;2023-12-04T08:18:59;20.50;95.60
50512;DHT22;36446;47.642;-3.018;2023-12-04T08:21:26;20.50;95.60
50512;DHT22;36446;47.642;-3.018;2023-12-04T08:23:54;20.50;95.60
50512;DHT22;36446;47.642;-3.018;2023-12-04T08:26:22;20.50;95.50
50512;DHT22;36446;47.642;-3.018;2023-12-04T08:28:49;20.40;95.40
50512;DHT22;36446;47.642;-3.018;2023-12-04T08:31:16;20.40;95.30
50512;DHT22;36446;47.642;-3.018;2023-12-04T08:33:43;20.40;95.30
50512;DHT22;36446;47.642;-3.018;2023-12-04T08:36:11;20.40;95.30
50512;DHT22;36446;47.642;-3.018;2023-12-04T08:38:38;20.30;95.20
50512;DHT22;36446;47.642;-3.018;2023-12-04T08:41:07;20.20;95.20
50512;DHT22;36446;47.642;-3.018;2023-12-04T08:43:34;20.20;95.20
50512;DHT22;36446;47.642;-3.018;2023-12-04T08:46:01;20.20;95.30
50512;DHT22;36446;47.642;-3.018;2023-12-04T08:48:28;20.10;95.20
50512;DHT22;36446;47.642;-3.018;2023-12-04T08:50:55;20.10;95.20
50512;DHT22;36446;47.642;-3.018;2023-12-04T08:53:22;20.10;95.20
50512;DHT22;36446;47.642;-3.018;2023-12-04T08:55:49;20.00;95.20
50512;DHT22;36446;47.642;-3.018;2023-12-04T08:58:18;20.00;95.20
50512;DHT22;36446;47.642;-3.018;2023-12-04T09:00:45;20.00;95.20
50512;DHT22;36446;47.642;-3.018;2023-12-04T09:03:12;20.00;95.10
50512;DHT22;36446;47.642;-3.018;2023-12-04T09:05:39;19.90;95.10
50512;DHT22;36446;47.642;-3.018;2023-12-04T09:08:06;19.90;95.10
50512;DHT22;36446;47.642;-3.018;2023-12-04T09:10:33;19.90;95.10
50512;DHT22;36446;47.642;-3.018;2023-12-04T09:13:00;19.80;95.00
50512;DHT22;36446;47.642;-3.018;2023-12-04T09:15:29;19.80;95.00
50512;DHT22;36446;47.642;-3.018;2023-12-04T09:17:56;19.80;95.00
50512;DHT22;36446;47.642;-3.018;2023-12-04T09:20:23;19.80;94.90
50512;DHT22;36446;47.642;-3.018;2023-12-04T09:22:50;19.80;94.90
50512;DHT22;36446;47.642;-3.018;2023-12-04T09:25:17;19.80;94.90
50512;DHT22;36446;47.642;-3.018;2023-12-04T09:27:44;19.80;95.00
50512;DHT22;36446;47.642;-3.018;2023-12-04T09:30:11;19.80;94.90
50512;DHT22;36446;47.642;-3.018;2023-12-04T09:32:40;19.70;94.90
50512;DHT22;36446;47.642;-3.018;2023-12-04T09:35:07;19.70;95.10
50512;DHT22;36446;47.642;-3.018;2023-12-04T09:37:34;19.70;94.80
50512;DHT22;36446;47.642;-3.018;2023-12-04T09:40:02;19.60;94.80
50512;DHT22;36446;47.642;-3.018;2023-12-04T09:42:29;19.60;94.80
50512;DHT22;36446;47.642;-3.018;2023-12-04T09:44:58;19.60;94.80
50512;DHT22;36446;47.642;-3.018;2023-12-04T09:47:27;19.60;94.80
50512;DHT22;36446;47.642;-3.018;2023-12-04T09:49:56;19.60;94.70
50512;DHT22;36446;47.642;-3.018;2023-12-04T09:52:23;19.60;94.80
50512;DHT22;36446;47.642;-3.018;2023-12-04T09:54:50;19.60;94.80
50512;DHT22;36446;47.642;-3.018;2023-12-04T09:57:18;19.60;94.80
50512;DHT22;36446;47.642;-3.018;2023-12-04T09:59:45;19.60;94.80
50512;DHT22;36446;47.642;-3.018;2023-12-04T10:02:13;19.60;94.70
50512;DHT22;36446;47.642;-3.018;2023-12-04T10:04:41;19.60;94.70
50512;DHT22;36446;47.642;-3.018;2023-12-04T10:07:10;19.60;94.80
50512;DHT22;36446;47.642;-3.018;2023-12-04T10:09:37;19.60;94.80
50512;DHT22;36446;47.642;-3.018;2023-12-04T10:12:06;19.60;94.70
50512;DHT22;36446;47.642;-3.018;2023-12-04T10:14:33;19.60;94.80
50512;DHT22;36446;47.642;-3.018;2023-12-04T10:17:14;19.60;94.80
50512;DHT22;36446;47.642;-3.018;2023-12-04T10:19:41;19.60;94.80
50512;DHT22;36446;47.642;-3.018;2023-12-04T10:22:10;19.60;94.80
50512;DHT22;36446;47.642;-3.018;2023-12-04T10:24:38;19.60;94.80
50512;DHT22;36446;47.642;-3.018;2023-12-04T10:27:06;19.60;94.80
50512;DHT22;36446;47.642;-3.018;2023-12-04T10:29:42;19.60;94.70
50512;DHT22;36446;47.642;-3.018;2023-12-04T10:32:11;19.60;94.70
50512;DHT22;36446;47.642;-3.018;2023-12-04T10:34:38;19.60;94.70
50512;DHT22;36446;47.642;-3.018;2023-12-04T10:37:11;19.60;94.70
50512;DHT22;36446;47.642;-3.018;2023-12-04T10:39:45;19.60;94.70
50512;DHT22;36446;47.642;-3.018;2023-12-04T10:42:23;19.50;94.70
50512;DHT22;36446;47.642;-3.018;2023-12-04T10:44:50;19.40;94.60
50512;DHT22;36446;47.642;-3.018;2023-12-04T10:47:19;19.40;94.60
50512;DHT22;36446;47.642;-3.018;2023-12-04T10:49:49;19.30;94.60
50512;DHT22;36446;47.642;-3.018;2023-12-04T10:52:18;19.30;94.60
50512;DHT22;36446;47.642;-3.018;2023-12-04T10:54:45;19.20;94.60
50512;DHT22;36446;47.642;-3.018;2023-12-04T10:57:16;19.20;94.70
50512;DHT22;36446;47.642;-3.018;2023-12-04T10:59:47;19.20;94.70
50512;DHT22;36446;47.642;-3.018;2023-12-04T11:02:19;19.20;94.70
50512;DHT22;36446;47.642;-3.018;2023-12-04T11:04:49;19.10;94.70
50512;DHT22;36446;47.642;-3.018;2023-12-04T11:07:19;19.10;94.70
50512;DHT22;36446;47.642;-3.018;2023-12-04T11:09:49;19.10;94.80
50512;DHT22;36446;47.642;-3.018;2023-12-04T11:12:18;19.10;94.80
50512;DHT22;36446;47.642;-3.018;2023-12-04T11:14:55;19.10;94.90
50512;DHT22;36446;47.642;-3.018;2023-12-04T11:17:24;19.00;94.80
50512;DHT22;36446;47.642;-3.018;2023-12-04T11:19:55;18.90;94.80
50512;DHT22;36446;47.642;-3.018;2023-12-04T11:22:26;18.90;94.80
50512;DHT22;36446;47.642;-3.018;2023-12-04T11:24:53;18.80;94.90
50512;DHT22;36446;47.642;-3.018;2023-12-04T11:27:21;18.90;94.90
50512;DHT22;36446;47.642;-3.018;2023-12-04T11:29:49;18.90;94.90
50512;DHT22;36446;47.642;-3.018;2023-12-04T11:32:17;19.00;95.00
50512;DHT22;36446;47.642;-3.018;2023-12-04T11:34:49;19.10;95.00
50512;DHT22;36446;47.642;-3.018;2023-12-04T11:37:16;19.20;95.00
50512;DHT22;36446;47.642;-3.018;2023-12-04T11:39:46;19.20;94.90
50512;DHT22;36446;47.642;-3.018;2023-12-04T11:42:13;19.30;95.00
50512;DHT22;36446;47.642;-3.018;2023-12-04T11:44:45;19.30;95.00
50512;DHT22;36446;47.642;-3.018;2023-12-04T11:47:14;19.30;95.00
50512;DHT22;36446;47.642;-3.018;2023-12-04T11:49:40;19.40;95.00
50512;DHT22;36446;47.642;-3.018;2023-12-04T11:52:08;19.50;95.00
50512;DHT22;36446;47.642;-3.018;2023-12-04T11:54:59;19.60;94.90
50512;DHT22;36446;47.642;-3.018;2023-12-04T11:57:32;19.60;95.00
50512;DHT22;36446;47.642;-3.018;2023-12-04T12:00:13;19.60;95.00
50512;DHT22;36446;47.642;-3.018;2023-12-04T12:02:47;19.70;95.00
50512;DHT22;36446;47.642;-3.018;2023-12-04T12:05:15;19.70;95.10
50512;DHT22;36446;47.642;-3.018;2023-12-04T12:07:42;19.70;95.10
50512;DHT22;36446;47.642;-3.018;2023-12-04T12:10:11;19.70;95.10
50512;DHT22;36446;47.642;-3.018;2023-12-04T12:12:39;19.80;95.20
50512;DHT22;36446;47.642;-3.018;2023-12-04T12:15:08;19.80;95.20
50512;DHT22;36446;47.642;-3.018;2023-12-04T12:17:37;19.80;95.50
50512;DHT22;36446;47.642;-3.018;2023-12-04T12:20:05;19.80;95.60
50512;DHT22;36446;47.642;-3.018;2023-12-04T12:22:32;19.80;95.60
50512;DHT22;36446;47.642;-3.018;2023-12-04T12:24:59;19.90;95.70
50512;DHT22;36446;47.642;-3.018;2023-12-04T12:27:30;19.90;95.60
50512;DHT22;36446;47.642;-3.018;2023-12-04T12:29:57;19.90;95.60
50512;DHT22;36446;47.642;-3.018;2023-12-04T12:32:25;20.00;95.50
50512;DHT22;36446;47.642;-3.018;2023-12-04T12:34:52;20.00;95.50
50512;DHT22;36446;47.642;-3.018;2023-12-04T12:37:20;20.00;95.50
50512;DHT22;36446;47.642;-3.018;2023-12-04T12:39:47;20.00;95.40
50512;DHT22;36446;47.642;-3.018;2023-12-04T12:42:21;20.10;95.40
50512;DHT22;36446;47.642;-3.018;2023-12-04T12:44:49;20.20;95.20
50512;DHT22;36446;47.642;-3.018;2023-12-04T12:47:17;20.10;95.00
50512;DHT22;36446;47.642;-3.018;2023-12-04T12:49:44;20.10;95.00
50512;DHT22;36446;47.642;-3.018;2023-12-04T12:52:11;20.20;95.00
50512;DHT22;36446;47.642;-3.018;2023-12-04T12:54:39;20.30;95.10
50512;DHT22;36446;47.642;-3.018;2023-12-04T12:57:07;20.50;95.00
50512;DHT22;36446;47.642;-3.018;2023-12-04T12:59:34;20.50;94.90
50512;DHT22;36446;47.642;-3.018;2023-12-04T13:02:04;20.60;94.70
50512;DHT22;36446;47.642;-3.018;2023-12-04T13:04:35;20.60;94.70
50512;DHT22;36446;47.642;-3.018;2023-12-04T13:07:02;20.50;94.70
50512;DHT22;36446;47.642;-3.018;2023-12-04T13:09:31;20.50;94.70
50512;DHT22;36446;47.642;-3.018;2023-12-04T13:11:58;20.50;94.90
50512;DHT22;36446;47.642;-3.018;2023-12-04T13:14:25;20.50;94.90
50512;DHT22;36446;47.642;-3.018;2023-12-04T13:16:52;20.40;95.00
50512;DHT22;36446;47.642;-3.018;2023-12-04T13:19:21;20.40;95.00
50512;DHT22;36446;47.642;-3.018;2023-12-04T13:21:48;20.40;94.90
50512;DHT22;36446;47.642;-3.018;2023-12-04T13:24:15;20.40;94.90
50512;DHT22;36446;47.642;-3.018;2023-12-04T13:26:43;20.50;94.70
50512;DHT22;36446;47.642;-3.018;2023-12-04T13:29:09;20.40;94.70
50512;DHT22;36446;47.642;-3.018;2023-12-04T13:31:36;20.40;94.70
50512;DHT22;36446;47.642;-3.018;2023-12-04T13:34:04;20.40;94.70
50512;DHT22;36446;47.642;-3.018;2023-12-04T13:36:34;20.40;94.70
50512;DHT22;36446;47.642;-3.018;2023-12-04T13:39:01;20.40;94.70
50512;DHT22;36446;47.642;-3.018;2023-12-04T13:41:29;20.50;94.70
50512;DHT22;36446;47.642;-3.018;2023-12-04T13:44:14;20.60;94.60
50512;DHT22;36446;47.642;-3.018;2023-12-04T13:46:41;20.60;94.40
50512;DHT22;36446;47.642;-3.018;2023-12-04T13:49:08;20.70;94.40
50512;DHT22;36446;47.642;-3.018;2023-12-04T13:51:37;20.60;94.20
50512;DHT22;36446;47.642;-3.018;2023-12-04T13:54:06;20.70;94.20
50512;DHT22;36446;47.642;-3.018;2023-12-04T13:56:46;20.70;94.20
50512;DHT22;36446;47.642;-3.018;2023-12-04T13:59:19;20.70;94.10
50512;DHT22;36446;47.642;-3.018;2023-12-04T14:01:47;20.70;94.10
50512;DHT22;36446;47.642;-3.018;2023-12-04T14:04:15;20.60;94.10
50512;DHT22;36446;47.642;-3.018;2023-12-04T14:06:44;20.60;94.00
50512;DHT22;36446;47.642;-3.018;2023-12-04T14:09:11;20.60;94.00
50512;DHT22;36446;47.642;-3.018;2023-12-04T14:11:42;20.60;93.90
50512;DHT22;36446;47.642;-3.018;2023-12-04T14:14:10;20.50;94.00
50512;DHT22;36446;47.642;-3.018;2023-12-04T14:16:38;20.50;94.00
50512;DHT22;36446;47.642;-3.018;2023-12-04T14:19:05;20.50;94.00
50512;DHT22;36446;47.642;-3.018;2023-12-04T14:21:32;20.50;94.00
50512;DHT22;36446;47.642;-3.018;2023-12-04T14:24:00;20.60;93.90
50512;DHT22;36446;47.642;-3.018;2023-12-04T14:26:27;20.60;93.80
50512;DHT22;36446;47.642;-3.018;2023-12-04T14:28:54;20.60;93.80
50512;DHT22;36446;47.642;-3.018;2023-12-04T14:31:22;20.60;93.70
50512;DHT22;36446;47.642;-3.018;2023-12-04T14:33:49;20.50;93.70
50512;DHT22;36446;47.642;-3.018;2023-12-04T14:36:17;20.60;93.70
50512;DHT22;36446;47.642;-3.018;2023-12-04T14:38:44;20.40;93.70
50512;DHT22;36446;47.642;-3.018;2023-12-04T14:41:12;20.50;93.80
50512;DHT22;36446;47.642;-3.018;2023-12-04T14:43:39;20.50;93.70
50512;DHT22;36446;47.642;-3.018;2023-12-04T14:46:08;20.50;93.90
50512;DHT22;36446;47.642;-3.018;2023-12-04T14:48:37;20.50;93.80
50512;DHT22;36446;47.642;-3.018;2023-12-04T14:51:06;20.50;93.80
50512;DHT22;36446;47.642;-3.018;2023-12-04T14:53:33;20.40;94.00
50512;DHT22;36446;47.642;-3.018;2023-12-04T14:56:12;20.30;94.10
50512;DHT22;36446;47.642;-3.018;2023-12-04T14:58:53;20.40;94.10
50512;DHT22;36446;47.642;-3.018;2023-12-04T15:01:40;20.40;94.10
50512;DHT22;36446;47.642;-3.018;2023-12-04T15:04:21;20.50;94.00
50512;DHT22;36446;47.642;-3.018;2023-12-04T15:07:39;20.50;93.90
50512;DHT22;36446;47.642;-3.018;2023-12-04T15:10:22;20.60;93.90
50512;DHT22;36446;47.642;-3.018;2023-12-04T15:13:26;20.60;93.80
50512;DHT22;36446;47.642;-3.018;2023-12-04T15:16:19;20.60;93.70
50512;DHT22;36446;47.642;-3.018;2023-12-04T15:18:57;20.50;93.70
50512;DHT22;36446;47.642;-3.018;2023-12-04T15:21:48;20.40;93.70
50512;DHT22;36446;47.642;-3.018;2023-12-04T15:24:15;20.50;93.80